Time;durP1;ratioP1;P1;durP2;ratioP2;P2;SDS_P1;SDS_P2;PMS_P1;PMS_P2;Temp;Humidity;BMP_temperature;BMP_pressure;BME280_temperature;BME280_humidity;BME280_pressure;Samples;Min_cycle;Max_cycle;Signal;HPM_P1;HPM_P2
2023/04/02 00:00:18;;;;;;;1.00;0.68;;;9.10;99.90;;;;;;6003824;23;20204;-70
2023/04/02 00:02:47;;;;;;;0.80;0.60;;;9.10;99.90;;;;;;6000095;23;20205;-70
2023/04/02 00:05:51;;;;;;;0.90;0.60;;;9.10;99.90;;;;;;6000206;23;20923;-71
2023/04/02 00:08:22;;;;;;;0.70;0.60;;;9.10;99.90;;;;;;5991097;23;20759;-71
2023/04/02 00:10:51;;;;;;;0.70;0.60;;;9.00;99.90;;;;;;6002480;23;20917;-70
2023/04/02 00:13:24;;;;;;;1.05;0.50;;;9.10;99.90;;;;;;6002533;23;20196;-70
2023/04/02 00:15:56;;;;;;;1.50;0.60;;;9.00;99.90;;;;;;6001376;23;20194;-70
2023/04/02 00:18:24;;;;;;;2.70;0.68;;;9.00;99.90;;;;;;6003397;23;20217;-70
2023/04/02 00:20:56;;;;;;;0.80;0.60;;;9.00;99.90;;;;;;6002556;23;20270;-71
2023/04/02 00:23:23;;;;;;;1.40;0.60;;;9.10;99.90;;;;;;6003754;23;20200;-70
2023/04/02 00:25:50;;;;;;;0.70;0.60;;;9.00;99.90;;;;;;6001414;23;20197;-70
2023/04/02 00:28:19;;;;;;;0.95;0.70;;;9.00;99.90;;;;;;6003254;23;20285;-71
2023/04/02 00:30:48;;;;;;;1.20;0.65;;;9.00;99.90;;;;;;6001920;23;20201;-71
2023/04/02 00:33:19;;;;;;;0.90;0.63;;;9.00;99.90;;;;;;5993749;23;20201;-70
2023/04/02 00:35:48;;;;;;;1.35;0.65;;;9.00;99.90;;;;;;6004328;23;20193;-70
2023/04/02 00:38:22;;;;;;;1.10;0.70;;;9.00;99.90;;;;;;6003242;23;20216;-70
2023/04/02 00:40:51;;;;;;;1.42;0.63;;;9.00;99.90;;;;;;6002602;23;20198;-70
2023/04/02 00:43:19;;;;;;;0.60;0.60;;;9.00;99.90;;;;;;6003192;23;20195;-70
2023/04/02 00:45:53;;;;;;;0.60;0.60;;;9.00;99.90;;;;;;5997262;23;20197;-71
2023/04/02 00:48:36;;;;;;;0.90;0.65;;;9.00;99.90;;;;;;6003241;23;20957;-70
2023/04/02 00:51:12;;;;;;;1.58;0.70;;;9.00;99.90;;;;;;6004108;23;20299;-70
2023/04/02 00:53:44;;;;;;;1.00;0.60;;;9.00;99.90;;;;;;6002940;23;20242;-71
2023/04/02 00:56:17;;;;;;;1.30;0.80;;;8.90;99.90;;;;;;6003441;23;20281;-71
2023/04/02 00:58:50;;;;;;;1.45;0.60;;;8.90;99.90;;;;;;6004069;23;20600;-71
2023/04/02 01:01:18;;;;;;;0.98;0.70;;;8.90;99.90;;;;;;6002694;23;20192;-71
2023/04/02 01:03:56;;;;;;;3.72;0.80;;;9.00;99.90;;;;;;6002156;23;20642;-71
2023/04/02 01:06:30;;;;;;;0.63;0.63;;;9.00;99.90;;;;;;5991345;23;20233;-71
2023/04/02 01:09:10;;;;;;;1.67;0.70;;;9.00;99.90;;;;;;6001570;23;20661;-70
2023/04/02 01:11:50;;;;;;;0.70;0.70;;;9.00;99.90;;;;;;6003304;23;20201;-70
2023/04/02 01:14:27;;;;;;;0.88;0.80;;;9.00;99.90;;;;;;6002501;23;20654;-69
2023/04/02 01:17:03;;;;;;;0.73;0.70;;;8.90;99.90;;;;;;5997865;23;20262;-70
2023/04/02 01:19:57;;;;;;;0.60;0.52;;;8.90;99.90;;;;;;6001620;23;20712;-70
2023/04/02 01:22:34;;;;;;;0.80;0.60;;;8.80;99.90;;;;;;5990934;23;20196;-70
2023/04/02 01:25:05;;;;;;;0.82;0.70;;;8.80;99.90;;;;;;5998660;23;20272;-70
2023/04/02 01:27:39;;;;;;;0.77;0.60;;;8.80;99.90;;;;;;6001260;23;20308;-70
2023/04/02 01:30:11;;;;;;;1.00;0.60;;;8.80;99.90;;;;;;6003953;23;20189;-70
2023/04/02 01:32:39;;;;;;;2.20;0.90;;;8.80;99.90;;;;;;6002337;23;20196;-70
2023/04/02 01:35:09;;;;;;;0.80;0.70;;;8.80;99.90;;;;;;6003265;23;20239;-70
2023/04/02 01:37:43;;;;;;;0.80;0.68;;;8.90;99.90;;;;;;6003418;23;20671;-69
2023/04/02 01:40:33;;;;;;;1.00;0.70;;;8.90;99.90;;;;;;6003815;23;20203;-69
2023/04/02 01:43:10;;;;;;;0.82;0.70;;;8.90;99.90;;;;;;6001808;23;20194;-70
2023/04/02 01:45:39;;;;;;;1.38;0.80;;;8.90;99.90;;;;;;6003816;23;20182;-70
2023/04/02 01:48:13;;;;;;;0.82;0.82;;;8.90;99.90;;;;;;5993166;23;20300;-70
2023/04/02 01:50:44;;;;;;;2.70;0.82;;;8.90;99.90;;;;;;6003512;23;20193;-70
2023/04/02 01:53:15;;;;;;;1.00;0.75;;;8.90;99.90;;;;;;5992326;23;20248;-70
2023/04/02 01:55:45;;;;;;;1.17;0.75;;;9.00;99.90;;;;;;6003453;23;20593;-71
2023/04/02 01:58:14;;;;;;;0.80;0.70;;;8.90;99.90;;;;;;5991809;23;20568;-70
2023/04/02 02:00:47;;;;;;;1.45;0.80;;;9.00;99.90;;;;;;6003619;23;20190;-70
2023/04/02 02:03:16;;;;;;;2.72;0.80;;;9.00;99.90;;;;;;6003139;23;20272;-71
2023/04/02 02:05:43;;;;;;;1.60;0.85;;;9.00;99.90;;;;;;5996868;23;20667;-70
2023/04/02 02:08:25;;;;;;;0.90;0.80;;;8.90;99.90;;;;;;5998801;23;20312;-71
2023/04/02 02:10:52;;;;;;;0.90;0.70;;;8.90;99.90;;;;;;6002957;23;20279;-70
2023/04/02 02:13:19;;;;;;;1.02;0.93;;;8.90;99.90;;;;;;6002361;23;20205;-71
2023/04/02 02:15:47;;;;;;;1.30;0.70;;;9.00;99.90;;;;;;6004591;23;20197;-70
2023/04/02 02:18:19;;;;;;;0.98;0.70;;;9.00;99.90;;;;;;6002149;23;20244;-71
2023/04/02 02:20:47;;;;;;;0.80;0.70;;;9.00;99.90;;;;;;6003340;23;20269;-72
2023/04/02 02:23:15;;;;;;;1.17;0.80;;;9.00;99.90;;;;;;6002827;23;20204;-70
2023/04/02 02:25:42;;;;;;;0.80;0.80;;;9.00;99.90;;;;;;6003611;23;20232;-70
2023/04/02 02:28:15;;;;;;;1.58;1.00;;;8.90;99.90;;;;;;6002346;23;20274;-70
2023/04/02 02:30:49;;;;;;;2.05;0.90;;;8.90;99.90;;;;;;6002858;23;20194;-69
2023/04/02 02:33:20;;;;;;;0.80;0.68;;;8.90;99.90;;;;;;6003610;23;20198;-69
2023/04/02 02:35:52;;;;;;;0.85;0.70;;;8.90;99.90;;;;;;5998515;23;20276;-70
2023/04/02 02:38:47;;;;;;;2.35;0.63;;;8.90;99.90;;;;;;6002478;23;20221;-70
2023/04/02 02:41:20;;;;;;;1.30;0.77;;;8.80;99.90;;;;;;6000545;23;20611;-70
2023/04/02 02:43:55;;;;;;;1.30;0.73;;;8.80;99.90;;;;;;6001994;23;20231;-70
2023/04/02 02:46:26;;;;;;;1.58;0.90;;;8.80;99.90;;;;;;5999587;23;20216;-70
2023/04/02 02:48:56;;;;;;;0.98;0.75;;;8.90;99.90;;;;;;6002014;23;20198;-70
2023/04/02 02:51:28;;;;;;;1.60;0.68;;;8.90;99.90;;;;;;5995716;23;20204;-70
2023/04/02 02:54:00;;;;;;;2.58;0.98;;;8.90;99.90;;;;;;6001511;23;20197;-70
2023/04/02 02:56:30;;;;;;;1.38;0.80;;;8.90;99.90;;;;;;6001819;23;20329;-70
2023/04/02 02:58:59;;;;;;;0.95;0.85;;;8.90;99.90;;;;;;6003303;23;20218;-69
2023/04/02 03:01:30;;;;;;;0.90;0.70;;;8.90;99.90;;;;;;6000761;23;20205;-70
2023/04/02 03:03:58;;;;;;;0.82;0.70;;;8.90;99.90;;;;;;6003643;23;20284;-69
2023/04/02 03:06:25;;;;;;;1.83;0.60;;;8.90;99.90;;;;;;5987133;23;20272;-71
2023/04/02 03:08:59;;;;;;;0.90;0.70;;;8.90;99.90;;;;;;6001181;23;20223;-70
2023/04/02 03:11:34;;;;;;;0.98;0.80;;;9.00;99.90;;;;;;6001442;23;20223;-70
2023/04/02 03:14:15;;;;;;;1.58;0.85;;;8.90;99.90;;;;;;6002562;23;20199;-70
2023/04/02 03:16:48;;;;;;;0.95;0.75;;;8.90;99.90;;;;;;5999902;23;20224;-70
2023/04/02 03:19:27;;;;;;;1.23;0.70;;;8.90;99.90;;;;;;5998269;23;20264;-70
2023/04/02 03:22:02;;;;;;;0.90;0.80;;;9.00;99.90;;;;;;6001420;23;21064;-70
2023/04/02 03:24:34;;;;;;;0.90;0.70;;;9.00;99.90;;;;;;6003386;23;20196;-71
2023/04/02 03:27:06;;;;;;;1.05;0.80;;;8.90;99.90;;;;;;6002907;23;20221;-70
2023/04/02 03:29:37;;;;;;;0.90;0.70;;;8.90;99.90;;;;;;6003093;23;20188;-70
2023/04/02 03:32:12;;;;;;;1.63;0.75;;;9.00;99.90;;;;;;6002435;23;20270;-70
2023/04/02 03:34:43;;;;;;;1.20;0.70;;;9.00;99.90;;;;;;6002978;23;20283;-70
2023/04/02 03:37:17;;;;;;;0.70;0.70;;;9.00;99.90;;;;;;5986603;23;20565;-70
2023/04/02 03:39:47;;;;;;;0.77;0.70;;;9.00;99.90;;;;;;6001540;23;20235;-70
2023/04/02 03:42:19;;;;;;;1.23;0.70;;;9.00;99.90;;;;;;5994712;23;20220;-70
2023/04/02 03:44:51;;;;;;;0.73;0.70;;;9.00;99.90;;;;;;6001028;23;20270;-69
2023/04/02 03:47:26;;;;;;;0.77;0.60;;;8.90;99.90;;;;;;5979604;23;20319;-70
2023/04/02 03:50:00;;;;;;;1.15;0.70;;;9.00;99.90;;;;;;6003300;23;20644;-69
2023/04/02 03:52:29;;;;;;;0.80;0.68;;;9.00;99.90;;;;;;6003023;23;20284;-70
2023/04/02 03:54:58;;;;;;;0.68;0.60;;;9.00;99.90;;;;;;5997824;23;20269;-69
2023/04/02 03:57:30;;;;;;;0.80;0.80;;;9.00;99.90;;;;;;5987747;23;20653;-71
2023/04/02 04:00:04;;;;;;;1.92;0.80;;;9.00;99.90;;;;;;6002517;23;20216;-71
2023/04/02 04:02:40;;;;;;;0.88;0.60;;;9.00;99.90;;;;;;6001418;23;20267;-71
2023/04/02 04:05:20;;;;;;;1.15;0.60;;;9.00;99.90;;;;;;5988161;23;20311;-70
2023/04/02 04:07:51;;;;;;;0.90;0.65;;;9.00;99.90;;;;;;5986684;23;20256;-69
2023/04/02 04:10:24;;;;;;;0.70;0.63;;;9.00;99.90;;;;;;6002793;23;20201;-69
2023/04/02 04:12:53;;;;;;;0.70;0.57;;;9.10;99.90;;;;;;5999869;23;20636;-70
2023/04/02 04:15:25;;;;;;;1.65;0.82;;;9.00;99.90;;;;;;5999530;23;20601;-71
2023/04/02 04:18:00;;;;;;;0.70;0.60;;;9.00;99.90;;;;;;5986090;23;20230;-71
2023/04/02 04:20:34;;;;;;;1.23;0.80;;;9.00;99.90;;;;;;5997382;23;20191;-71
2023/04/02 04:23:10;;;;;;;2.75;0.70;;;9.10;99.90;;;;;;5999009;23;20704;-71
2023/04/02 04:25:38;;;;;;;0.70;0.70;;;9.00;99.90;;;;;;6001137;23;20202;-70
2023/04/02 04:28:15;;;;;;;0.82;0.70;;;9.00;99.90;;;;;;6003030;23;20252;-71
2023/04/02 04:30:51;;;;;;;0.70;0.70;;;9.00;99.90;;;;;;6003592;23;20194;-71
2023/04/02 04:33:22;;;;;;;1.70;0.73;;;9.00;99.90;;;;;;6001192;23;20197;-71
2023/04/02 04:35:54;;;;;;;1.00;0.70;;;9.00;99.90;;;;;;5983101;23;20586;-71
2023/04/02 04:38:31;;;;;;;0.90;0.80;;;9.00;99.90;;;;;;5993247;23;20197;-71
2023/04/02 04:41:03;;;;;;;1.00;0.88;;;9.00;99.90;;;;;;6001063;23;20204;-71
2023/04/02 04:43:40;;;;;;;1.92;0.90;;;9.00;99.90;;;;;;6003326;23;20668;-71
2023/04/02 04:46:14;;;;;;;1.40;1.05;;;9.00;99.90;;;;;;6005026;23;20304;-71
2023/04/02 04:48:53;;;;;;;1.33;0.98;;;9.10;99.90;;;;;;6002224;23;20239;-71
2023/04/02 04:51:24;;;;;;;0.80;0.80;;;9.10;99.90;;;;;;6004134;23;20714;-71
2023/04/02 04:53:53;;;;;;;1.10;0.70;;;9.10;99.90;;;;;;6003667;23;20248;-71
2023/04/02 04:56:25;;;;;;;1.13;0.77;;;9.10;99.90;;;;;;6003379;23;20226;-71
2023/04/02 04:58:57;;;;;;;0.80;0.70;;;9.10;99.90;;;;;;6004217;23;20210;-71
2023/04/02 05:01:30;;;;;;;0.88;0.80;;;9.20;99.90;;;;;;6003319;23;20193;-71
2023/04/02 05:04:03;;;;;;;1.13;0.80;;;9.20;99.90;;;;;;6004531;23;20229;-71
2023/04/02 05:06:39;;;;;;;0.68;0.68;;;9.10;99.90;;;;;;6002754;23;20295;-70
2023/04/02 05:09:14;;;;;;;0.70;0.63;;;9.10;99.90;;;;;;6002246;23;20226;-71
2023/04/02 05:11:45;;;;;;;1.63;0.70;;;9.10;99.90;;;;;;5997827;23;20276;-70
2023/04/02 05:14:21;;;;;;;0.65;0.65;;;9.30;99.90;;;;;;5998717;23;20192;-71
2023/04/02 05:16:54;;;;;;;1.00;0.68;;;9.00;99.90;;;;;;6003488;23;20221;-71
2023/04/02 05:19:27;;;;;;;0.98;0.70;;;9.00;99.90;;;;;;6004665;23;20535;-71
2023/04/02 05:21:59;;;;;;;1.25;0.68;;;9.00;99.90;;;;;;6001118;23;20196;-71
2023/04/02 05:24:37;;;;;;;1.15;0.60;;;9.00;99.90;;;;;;6002620;23;20399;-71
2023/04/02 05:27:15;;;;;;;1.20;0.80;;;9.00;99.90;;;;;;5999664;23;20209;-71
2023/04/02 05:29:47;;;;;;;2.50;0.60;;;9.00;99.90;;;;;;6003320;23;20247;-70
2023/04/02 05:32:19;;;;;;;0.93;0.65;;;9.00;99.90;;;;;;6005043;23;20197;-70
2023/04/02 05:34:51;;;;;;;1.00;0.63;;;9.00;99.90;;;;;;6001799;23;20238;-70
2023/04/02 05:37:21;;;;;;;0.70;0.60;;;9.00;99.90;;;;;;6005067;23;20212;-70
2023/04/02 05:39:52;;;;;;;0.88;0.65;;;9.10;99.90;;;;;;6000630;23;20221;-70
2023/04/02 05:42:23;;;;;;;0.70;0.68;;;9.10;99.90;;;;;;6004357;23;20208;-70
2023/04/02 05:45:02;;;;;;;0.80;0.60;;;9.10;99.90;;;;;;6001572;23;20205;-70
2023/04/02 05:47:32;;;;;;;1.45;0.60;;;9.10;99.90;;;;;;5977018;23;20240;-70
2023/04/02 05:50:18;;;;;;;0.60;0.60;;;9.10;99.90;;;;;;5997389;23;20407;-70
2023/04/02 05:52:49;;;;;;;2.42;0.75;;;9.20;99.90;;;;;;6002659;23;20236;-70
2023/04/02 05:55:48;;;;;;;0.60;0.60;;;9.20;99.90;;;;;;6004127;23;20269;-69
2023/04/02 05:58:26;;;;;;;1.10;0.70;;;9.30;99.90;;;;;;5999056;23;20206;-71
2023/04/02 06:01:01;;;;;;;1.75;1.00;;;9.30;99.90;;;;;;5998305;23;20647;-71
2023/04/02 06:03:36;;;;;;;1.15;0.80;;;9.40;99.90;;;;;;6002045;23;20876;-71
2023/04/02 06:06:13;;;;;;;1.10;1.00;;;9.40;99.90;;;;;;6000596;23;20745;-72
2023/04/02 06:08:44;;;;;;;0.98;0.93;;;9.50;99.90;;;;;;6003023;23;20264;-71
2023/04/02 06:11:13;;;;;;;1.10;1.00;;;9.50;99.90;;;;;;6002872;23;20194;-71
2023/04/02 06:13:40;;;;;;;0.80;0.60;;;9.60;99.90;;;;;;6000716;23;20606;-70
2023/04/02 06:16:10;;;;;;;1.35;0.80;;;9.60;99.90;;;;;;5999181;23;20217;-71
2023/04/02 06:18:37;;;;;;;0.80;0.70;;;9.60;99.90;;;;;;5995787;23;20222;-71
2023/04/02 06:21:06;;;;;;;0.70;0.70;;;9.60;99.90;;;;;;5993540;23;20582;-70
2023/04/02 06:23:40;;;;;;;0.85;0.80;;;9.60;99.90;;;;;;5990252;23;20210;-70
2023/04/02 06:26:12;;;;;;;0.70;0.70;;;9.60;99.90;;;;;;5988904;23;20284;-70
2023/04/02 06:28:45;;;;;;;1.23;0.80;;;9.60;99.90;;;;;;5990050;23;20214;-70
2023/04/02 06:31:21;;;;;;;0.90;0.70;;;9.70;99.90;;;;;;6000279;23;20269;-70
2023/04/02 06:33:51;;;;;;;1.88;0.70;;;9.70;99.90;;;;;;6002181;23;20190;-71
2023/04/02 06:36:20;;;;;;;0.80;0.80;;;9.80;99.90;;;;;;5995427;23;20209;-72
2023/04/02 06:38:49;;;;;;;0.90;0.73;;;9.90;99.90;;;;;;6001895;23;20257;-71
2023/04/02 06:41:21;;;;;;;1.10;0.90;;;10.00;99.90;;;;;;6000013;23;20217;-71
2023/04/02 06:43:54;;;;;;;1.40;1.30;;;10.10;99.90;;;;;;6000845;23;20182;-71
2023/04/02 06:46:26;;;;;;;1.33;1.10;;;10.10;99.90;;;;;;6001121;23;20218;-71
2023/04/02 06:49:00;;;;;;;1.20;1.00;;;10.30;99.90;;;;;;5989167;23;20245;-71
2023/04/02 06:51:30;;;;;;;2.00;1.10;;;10.30;99.90;;;;;;6003369;23;20668;-71
2023/04/02 06:53:57;;;;;;;2.30;1.35;;;10.40;99.90;;;;;;6002347;23;20643;-71
2023/04/02 06:56:38;;;;;;;2.50;1.65;;;10.30;99.90;;;;;;6003896;23;20210;-71
2023/04/02 06:59:06;;;;;;;0.90;0.70;;;10.40;99.90;;;;;;5998665;23;20210;-71
2023/04/02 07:01:38;;;;;;;0.90;0.90;;;10.30;99.90;;;;;;6003831;23;20274;-71
2023/04/02 07:04:06;;;;;;;1.65;0.80;;;10.30;99.90;;;;;;6001270;23;20277;-71
2023/04/02 07:06:34;;;;;;;1.25;1.00;;;10.30;99.90;;;;;;6001072;23;20211;-71
2023/04/02 07:09:01;;;;;;;1.50;1.30;;;10.30;99.90;;;;;;5987666;23;20304;-71
2023/04/02 07:11:29;;;;;;;1.40;0.80;;;10.40;99.90;;;;;;5994945;23;20546;-71
2023/04/02 07:13:56;;;;;;;1.20;0.82;;;10.30;99.90;;;;;;6000849;23;20260;-71
2023/04/02 07:16:26;;;;;;;1.75;1.10;;;10.30;99.90;;;;;;5999465;23;20245;-71
2023/04/02 07:18:57;;;;;;;2.08;0.88;;;10.30;99.90;;;;;;6001808;23;20601;-71
2023/04/02 07:21:24;;;;;;;1.17;0.90;;;10.30;99.90;;;;;;5999524;23;20190;-71
2023/04/02 07:23:53;;;;;;;1.98;1.05;;;10.30;99.90;;;;;;6000577;23;20198;-71
2023/04/02 07:26:22;;;;;;;1.33;1.23;;;10.40;99.90;;;;;;5999319;23;21601;-71
2023/04/02 07:28:49;;;;;;;1.17;1.08;;;10.50;99.90;;;;;;6001626;23;20701;-70
2023/04/02 07:31:18;;;;;;;1.70;1.52;;;10.60;99.90;;;;;;6004257;23;20265;-70
2023/04/02 07:33:46;;;;;;;1.83;1.00;;;10.70;99.90;;;;;;5998263;23;20598;-70
2023/04/02 07:36:15;;;;;;;2.20;0.90;;;10.80;99.90;;;;;;5999989;23;20280;-71
2023/04/02 07:38:42;;;;;;;1.05;0.77;;;10.90;99.90;;;;;;6001336;23;20248;-70
2023/04/02 07:41:11;;;;;;;1.27;0.90;;;11.00;99.90;;;;;;6003329;23;20228;-71
2023/04/02 07:43:39;;;;;;;1.40;1.05;;;11.00;99.90;;;;;;6000697;23;20197;-71
2023/04/02 07:46:07;;;;;;;2.00;1.35;;;11.10;99.90;;;;;;5995827;23;20210;-71
2023/04/02 07:48:34;;;;;;;1.23;1.08;;;11.20;99.90;;;;;;5982965;23;20544;-71
2023/04/02 07:51:02;;;;;;;2.92;2.72;;;11.40;99.90;;;;;;6005521;23;20221;-71
2023/04/02 07:53:31;;;;;;;2.40;1.90;;;11.20;99.90;;;;;;5997219;23;20186;-71
2023/04/02 07:55:59;;;;;;;1.75;1.20;;;11.20;99.90;;;;;;6002110;23;20629;-71
2023/04/02 07:58:28;;;;;;;1.60;0.93;;;11.30;99.90;;;;;;5991655;23;20214;-72
2023/04/02 08:00:55;;;;;;;2.08;1.30;;;11.30;99.90;;;;;;5995381;23;20198;-69
2023/04/02 08:03:23;;;;;;;1.73;1.63;;;11.40;99.90;;;;;;5994841;23;20192;-70
2023/04/02 08:05:51;;;;;;;1.58;1.40;;;11.50;99.90;;;;;;5994916;23;20360;-72
2023/04/02 08:08:19;;;;;;;1.17;1.00;;;11.50;99.90;;;;;;5982114;23;20285;-71
2023/04/02 08:10:47;;;;;;;1.30;0.93;;;11.50;99.90;;;;;;5986820;23;20197;-72
2023/04/02 08:13:13;;;;;;;0.90;0.80;;;11.50;99.90;;;;;;5995244;23;20187;-71
2023/04/02 08:15:42;;;;;;;1.10;1.00;;;11.50;99.90;;;;;;5993641;23;20214;-72
2023/04/02 08:18:11;;;;;;;1.60;1.10;;;11.40;99.90;;;;;;5980687;23;20186;-71
2023/04/02 08:20:38;;;;;;;1.52;1.42;;;11.40;99.90;;;;;;5997419;23;20288;-71
2023/04/02 08:23:12;;;;;;;1.40;1.02;;;11.40;99.90;;;;;;5992377;23;20183;-71
2023/04/02 08:25:39;;;;;;;2.03;1.92;;;11.40;99.90;;;;;;5988128;23;20214;-71
2023/04/02 08:28:06;;;;;;;1.67;1.58;;;11.50;99.90;;;;;;6002268;23;20191;-71
2023/04/02 08:30:33;;;;;;;6.05;3.47;;;11.50;99.90;;;;;;5991533;23;20713;-71
2023/04/02 08:33:02;;;;;;;2.00;1.90;;;11.60;99.90;;;;;;6001973;23;20220;-71
2023/04/02 08:35:30;;;;;;;1.63;1.52;;;11.70;99.90;;;;;;5998946;23;20210;-71
2023/04/02 08:37:57;;;;;;;1.60;1.10;;;11.60;99.90;;;;;;6002350;23;20628;-71
2023/04/02 08:40:29;;;;;;;1.40;1.30;;;11.70;99.90;;;;;;6001722;23;20217;-72
2023/04/02 08:43:15;;;;;;;1.10;1.00;;;11.70;99.90;;;;;;5997899;23;20182;-72
2023/04/02 08:45:56;;;;;;;1.13;1.02;;;11.70;99.90;;;;;;5995800;23;20946;-71
2023/04/02 08:48:24;;;;;;;1.20;1.10;;;11.80;99.90;;;;;;6003023;23;20193;-72
2023/04/02 08:50:52;;;;;;;2.03;1.20;;;11.80;99.90;;;;;;5995603;23;20195;-71
2023/04/02 08:53:22;;;;;;;1.20;1.10;;;11.90;99.90;;;;;;6001517;23;20269;-72
2023/04/02 08:56:02;;;;;;;1.25;0.88;;;12.00;99.90;;;;;;6000260;23;20210;-69
2023/04/02 08:58:40;;;;;;;1.30;1.00;;;12.00;99.90;;;;;;5988974;23;20194;-72
2023/04/02 09:01:16;;;;;;;0.98;0.90;;;12.10;99.90;;;;;;5996126;23;20438;-71
2023/04/02 09:03:47;;;;;;;1.38;0.98;;;12.10;99.90;;;;;;5985447;23;20265;-69
2023/04/02 09:06:18;;;;;;;1.45;1.35;;;12.20;99.90;;;;;;5990450;23;20776;-71
2023/04/02 09:08:48;;;;;;;1.95;1.48;;;12.10;99.90;;;;;;5989173;23;20202;-73
2023/04/02 09:11:24;;;;;;;2.85;1.17;;;12.20;99.90;;;;;;6003765;23;20201;-72
2023/04/02 09:13:56;;;;;;;1.70;1.60;;;12.00;99.90;;;;;;5976781;24;20615;-73
2023/04/02 09:16:36;;;;;;;1.38;1.27;;;12.00;99.90;;;;;;5992434;23;20206;-71
2023/04/02 09:19:16;;;;;;;1.20;1.10;;;12.10;99.90;;;;;;5986051;23;20204;-72
2023/04/02 09:21:47;;;;;;;1.60;1.50;;;12.20;99.90;;;;;;6004385;23;20854;-71
2023/04/02 09:24:18;;;;;;;1.40;1.10;;;12.40;99.90;;;;;;6004251;23;20186;-82
2023/04/02 09:26:46;;;;;;;1.00;0.90;;;12.60;99.90;;;;;;5999234;23;20452;-69
2023/04/02 09:29:38;;;;;;;1.10;1.00;;;12.80;99.90;;;;;;6003453;23;20511;-70
2023/04/02 09:32:19;;;;;;;1.30;1.00;;;12.80;99.90;;;;;;6002085;23;20473;-70
2023/04/02 09:34:47;;;;;;;1.77;1.10;;;13.00;99.90;;;;;;6004422;23;20469;-70
2023/04/02 09:37:17;;;;;;;1.33;1.00;;;13.20;99.90;;;;;;5995011;23;20544;-70
2023/04/02 09:39:44;;;;;;;1.10;1.00;;;13.30;99.90;;;;;;6004788;23;20517;-70
2023/04/02 09:42:29;;;;;;;2.50;0.93;;;13.40;99.90;;;;;;6005413;23;20485;-71
2023/04/02 09:45:14;;;;;;;0.80;0.80;;;13.50;99.90;;;;;;5999197;23;20569;-71
2023/04/02 09:47:41;;;;;;;0.80;0.80;;;13.60;99.90;;;;;;5984448;23;20521;-70
2023/04/02 09:50:25;;;;;;;1.47;0.80;;;13.60;99.90;;;;;;5981878;23;20506;-70
2023/04/02 09:52:53;;;;;;;0.70;0.60;;;13.50;99.90;;;;;;6000383;23;20797;-70
2023/04/02 09:55:25;;;;;;;1.07;0.70;;;13.10;99.90;;;;;;6002663;23;20464;-70
2023/04/02 09:58:08;;;;;;;0.93;0.60;;;13.40;99.90;;;;;;5997869;23;20454;-70
2023/04/02 10:00:35;;;;;;;0.70;0.70;;;13.60;99.90;;;;;;5992514;23;20456;-69
2023/04/02 10:03:06;;;;;;;0.90;0.53;;;13.80;99.90;;;;;;6004803;23;20462;-70
2023/04/02 10:05:35;;;;;;;0.60;0.60;;;14.10;99.90;;;;;;6002339;23;20527;-70
2023/04/02 10:08:18;;;;;;;1.00;0.60;;;14.00;99.90;;;;;;5993153;23;20483;-70
2023/04/02 10:10:48;;;;;;;0.53;0.50;;;14.10;99.90;;;;;;6003189;23;20483;-70
2023/04/02 10:13:22;;;;;;;0.60;0.50;;;14.10;99.90;;;;;;6005045;23;20527;-70
2023/04/02 10:15:54;;;;;;;0.80;0.50;;;14.00;99.90;;;;;;6001023;23;20501;-71
2023/04/02 10:18:30;;;;;;;0.93;0.50;;;14.00;99.90;;;;;;6001575;23;20481;-70
2023/04/02 10:21:01;;;;;;;0.70;0.60;;;14.10;99.90;;;;;;5994749;23;20479;-70
2023/04/02 10:23:30;;;;;;;0.60;0.50;;;14.00;99.90;;;;;;6002398;23;20446;-71
2023/04/02 10:26:08;;;;;;;0.60;0.60;;;14.00;99.90;;;;;;6002928;23;20544;-70
2023/04/02 10:28:48;;;;;;;0.70;0.60;;;14.00;99.90;;;;;;5977273;24;20436;-70
2023/04/02 10:31:21;;;;;;;0.73;0.67;;;14.10;99.90;;;;;;6001995;23;20978;-70
2023/04/02 10:33:51;;;;;;;0.70;0.60;;;14.10;99.90;;;;;;6005292;23;20505;-70
2023/04/02 10:36:29;;;;;;;1.10;1.03;;;14.20;99.90;;;;;;6002760;23;20470;-70
2023/04/02 10:39:00;;;;;;;0.70;0.60;;;14.20;99.90;;;;;;5977218;23;20572;-70
2023/04/02 10:41:32;;;;;;;0.80;0.60;;;14.10;99.90;;;;;;6002810;23;20795;-70
2023/04/02 10:44:07;;;;;;;0.90;0.60;;;14.20;99.90;;;;;;6004259;23;20511;-70
2023/04/02 10:46:42;;;;;;;0.63;0.60;;;14.20;99.90;;;;;;6000880;23;20812;-71
2023/04/02 10:49:21;;;;;;;0.60;0.53;;;14.20;99.90;;;;;;6002603;23;20467;-70
2023/04/02 10:51:55;;;;;;;0.60;0.60;;;14.30;99.90;;;;;;5977132;24;20426;-70
2023/04/02 10:54:33;;;;;;;0.70;0.60;;;14.40;99.90;;;;;;5990912;23;20476;-72
2023/04/02 10:57:07;;;;;;;1.30;0.60;;;14.40;99.90;;;;;;5985152;23;20463;-70
2023/04/02 10:59:37;;;;;;;0.80;0.80;;;14.40;99.90;;;;;;5996879;23;20840;-70
2023/04/02 11:02:24;;;;;;;0.70;0.63;;;14.30;99.90;;;;;;6004845;23;20977;-70
2023/04/02 11:04:55;;;;;;;0.70;0.70;;;14.20;99.90;;;;;;6003860;23;20454;-70
2023/04/02 11:07:26;;;;;;;0.83;0.70;;;14.20;99.90;;;;;;6003169;23;20444;-70
2023/04/02 11:09:57;;;;;;;0.83;0.60;;;14.20;99.90;;;;;;5981346;23;20486;-70
2023/04/02 11:12:30;;;;;;;0.70;0.70;;;14.20;99.90;;;;;;5994979;23;20445;-70
2023/04/02 11:14:57;;;;;;;0.60;0.60;;;14.10;99.90;;;;;;5998321;23;20534;-71
2023/04/02 11:17:24;;;;;;;0.60;0.50;;;14.10;99.90;;;;;;6003418;23;20550;-70
2023/04/02 11:19:52;;;;;;;0.70;0.70;;;14.20;99.90;;;;;;6003741;23;20498;-70
2023/04/02 11:22:23;;;;;;;0.70;0.60;;;14.00;99.90;;;;;;6003445;23;20944;-71
2023/04/02 11:24:52;;;;;;;0.60;0.57;;;14.00;99.90;;;;;;5992776;23;20473;-70
2023/04/02 11:27:26;;;;;;;0.70;0.60;;;14.00;99.90;;;;;;5987257;23;20986;-70
2023/04/02 11:30:01;;;;;;;0.70;0.70;;;14.00;99.90;;;;;;6002852;23;20571;-70
2023/04/02 11:32:34;;;;;;;0.70;0.70;;;14.00;99.90;;;;;;6005542;23;20438;-70
2023/04/02 11:35:27;;;;;;;0.87;0.70;;;13.90;99.90;;;;;;6003984;23;20530;-69
2023/04/02 11:37:59;;;;;;;0.70;0.63;;;13.80;99.90;;;;;;6001499;23;20846;-70
2023/04/02 11:40:46;;;;;;;0.70;0.63;;;14.00;99.90;;;;;;6005141;23;20461;-70
2023/04/02 11:43:48;;;;;;;0.90;0.80;;;13.90;99.90;;;;;;6004650;23;20428;-70
2023/04/02 11:46:46;;;;;;;0.63;0.63;;;13.90;99.90;;;;;;6003329;23;20466;-70
2023/04/02 11:49:57;;;;;;;0.80;0.60;;;14.00;99.90;;;;;;5999836;23;21007;-70
2023/04/02 11:52:27;;;;;;;1.23;0.60;;;14.10;99.90;;;;;;5997459;23;20497;-71
2023/04/02 11:55:19;;;;;;;1.50;0.70;;;14.30;99.90;;;;;;6004715;23;20492;-71
2023/04/02 11:58:05;;;;;;;0.80;0.77;;;14.40;99.90;;;;;;6004011;23;20445;-71
2023/04/02 12:01:22;;;;;;;1.00;0.90;;;14.60;99.90;;;;;;6004107;23;20509;-70
2023/04/02 12:04:28;;;;;;;1.00;0.90;;;14.70;99.90;;;;;;5978681;23;20418;-70
2023/04/02 12:07:11;;;;;;;0.90;0.90;;;14.90;99.90;;;;;;5998552;23;20939;-71
2023/04/02 12:09:45;;;;;;;6.07;5.60;;;14.90;99.90;;;;;;6000190;23;20440;-70
2023/04/02 12:12:24;;;;;;;5.10;4.70;;;15.00;99.90;;;;;;6003488;23;20656;-71
2023/04/02 12:14:52;;;;;;;2.50;2.30;;;15.00;99.90;;;;;;6005354;23;20486;-71
2023/04/02 12:17:29;;;;;;;2.00;1.80;;;15.00;99.90;;;;;;6002467;23;20445;-70
2023/04/02 12:20:00;;;;;;;1.40;1.30;;;15.00;99.90;;;;;;6001250;23;20445;-71
2023/04/02 12:22:30;;;;;;;1.73;1.10;;;15.00;99.90;;;;;;6002393;23;20861;-71
2023/04/02 12:25:00;;;;;;;1.27;1.17;;;15.10;99.90;;;;;;5997107;23;20492;-70
2023/04/02 12:27:29;;;;;;;0.80;0.80;;;15.30;99.90;;;;;;5983877;23;20799;-70
2023/04/02 12:30:13;;;;;;;0.80;0.80;;;15.30;99.90;;;;;;6003372;23;20465;-70
2023/04/02 12:32:40;;;;;;;1.17;1.07;;;15.30;99.90;;;;;;5987055;23;20444;-70
2023/04/02 12:35:27;;;;;;;1.23;1.13;;;15.30;99.90;;;;;;6001478;23;20467;-70
2023/04/02 12:37:54;;;;;;;1.10;1.00;;;15.30;99.90;;;;;;6001096;23;20525;-70
2023/04/02 12:40:21;;;;;;;1.30;1.20;;;15.20;99.90;;;;;;6004523;23;20572;-70
2023/04/02 12:42:49;;;;;;;1.30;1.20;;;15.20;99.90;;;;;;6005007;23;20457;-70
2023/04/02 12:45:23;;;;;;;2.07;1.40;;;15.20;99.90;;;;;;5993201;23;20860;-70
2023/04/02 12:47:52;;;;;;;1.40;1.30;;;15.10;99.90;;;;;;5989429;23;20445;-70
2023/04/02 12:50:21;;;;;;;1.50;1.40;;;15.00;99.90;;;;;;6006049;23;20532;-70
2023/04/02 12:52:50;;;;;;;1.70;1.60;;;15.00;99.90;;;;;;6002516;23;20449;-70
2023/04/02 12:55:20;;;;;;;2.50;2.30;;;14.90;99.90;;;;;;5998366;23;20472;-70
2023/04/02 12:57:49;;;;;;;1.90;1.80;;;14.80;99.90;;;;;;6003470;23;20535;-70
2023/04/02 13:00:31;;;;;;;1.97;1.87;;;14.70;99.90;;;;;;6003060;23;20774;-70
2023/04/02 13:03:16;;;;;;;1.50;1.40;;;14.50;99.90;;;;;;6001677;23;20523;-70
2023/04/02 13:05:48;;;;;;;1.70;1.60;;;14.40;99.90;;;;;;5987152;23;20900;-70
2023/04/02 13:08:19;;;;;;;1.70;1.60;;;14.10;99.90;;;;;;5986604;23;20834;-70
2023/04/02 13:10:51;;;;;;;1.63;1.53;;;13.90;99.90;;;;;;6003287;23;20613;-70
2023/04/02 13:13:27;;;;;;;1.50;1.40;;;13.60;99.90;;;;;;5994584;23;20531;-70
2023/04/02 13:16:02;;;;;;;1.40;1.30;;;13.50;99.90;;;;;;5996573;23;21051;-70
2023/04/02 13:18:32;;;;;;;1.30;1.20;;;13.30;99.90;;;;;;5998650;23;20440;-70
2023/04/02 13:21:01;;;;;;;1.00;1.00;;;13.40;99.90;;;;;;6004600;23;20446;-70
2023/04/02 13:23:35;;;;;;;1.37;1.10;;;13.10;99.90;;;;;;6003024;23;20438;-69